Detalii statie AGRICHIM STEFAN CEL MARE [0000198F]

Toti senzorii

Date Temperatura solului [C]Precipitatii [mm]Voltaj baterie [mV]HC Air temperature [C]HC Relative humidity [%]Punctul de roua [C]
medieminmaxsumaultimamedieminmaxmediemediemin
2017-08-14 20:00:00 22.1 22 22.3 0 6992 19.54 19.3 19.88 100 19.5 19.3
2017-08-14 21:00:00 22 21.8 22.1 0 6952 19.75 19.58 19.88 100 19.7 19.5
2017-08-14 22:00:00 21.8 21.7 21.9 0 6942 19.54 19.42 19.7 100 19.5 19.4
2017-08-14 23:00:00 21.6 21.4 21.9 0 6922 19.24 19.02 19.43 100 19.2 19
2017-08-15 00:00:00 21.4 21.3 21.6 0 6904 19.26 18.98 19.52 100 19.2 18.9
2017-08-15 01:00:00 21.2 21.2 21.4 0 6884 19.36 19.29 19.42 100 19.3 19.2
2017-08-15 02:00:00 21.1 21 21.3 0 6894 19.6 19.46 19.82 100 19.5 19.4
2017-08-15 03:00:00 21 20.8 21.1 0 6884 19.61 19.38 19.8 100 19.5 19.3
2017-08-15 04:00:00 20.9 20.9 21 0 6864 19.18 19.02 19.29 100 19.1 19
2017-08-15 05:00:00 20.7 20.6 20.9 0 6854 19.04 18.97 19.12 100 19 18.9
2017-08-15 06:00:00 20.7 20.7 20.9 0 6864 18.87 18.75 19.11 100 18.8 18.7
2017-08-15 07:00:00 20.5 20.4 20.8 0 6914 19.31 18.84 20 100 19.2 18.8
2017-08-15 08:00:00 20.4 20.4 20.6 0 7030 20.62 20.17 20.87 100 20.5 20.1
2017-08-15 09:00:00 20.4 20.3 20.6 0 7246 21.98 20.99 22.93 100 21.9 20.9
2017-08-15 10:00:00 20.5 20.4 20.6 0 7254 23.55 23.01 24.16 100 23.5 23
2017-08-15 11:00:00 20.6 20.5 20.8 0 7246 24.29 23.8 24.81 100 24.2 23.8
2017-08-15 12:00:00 20.8 20.7 21 0 7254 23.99 23.39 24.66 100 23.9 23.3
2017-08-15 13:00:00 21 20.8 21.2 0 7254 25.5 24.5 26.16 100 25.4 24.5
2017-08-15 14:00:00 21.4 21.2 21.7 0 7254 25.49 24.59 26.49 100 25.4 24.5
2017-08-15 15:00:00 21.8 21.6 22.1 0 7254 26.66 26.08 27.09 100 26.6 26
2017-08-15 16:00:00 22.3 22.1 22.5 0 7216 26.42 25.76 27.02 100 26.3 25.7
2017-08-15 17:00:00 22.5 22.4 22.7 0 7246 25.75 25.36 26.53 100 25.7 25.3
2017-08-15 18:00:00 22.7 22.7 22.8 0 7236 25.34 25.11 25.64 100 25.3 25.1
2017-08-15 19:00:00 22.7 22.5 22.8 0 7088 24.31 23.76 25.03 100 24.2 23.7
2017-08-15 20:00:00 22.6 22.5 22.8 4.2 6982 22.2 18.75 23.72 100 22.1 18.7
2017-08-15 21:00:00 22.4 22.3 22.5 6.2 6962 18.08 17.69 18.77 100 18 17.6
2017-08-15 22:00:00 22.1 22 22.3 0 6932 18.04 17.95 18.24 100 18 17.9
2017-08-15 23:00:00 22 21.8 22.1 0 6904 18.81 18.24 19.34 100 18.7 18.2
2017-08-16 00:00:00 21.7 21.7 21.9 0 6894 19.6 19.35 19.79 100 19.5 19.3
2017-08-16 01:00:00 21.6 21.6 21.9 0 6884 19.61 19.51 19.78 100 19.5 19.5
2017-08-16 02:00:00 21.4 21.3 21.5 0 6884 19.83 19.69 19.94 100 19.7 19.6
2017-08-16 03:00:00 21.2 21.2 21.4 0 6874 19.95 19.78 20.11 100 19.9 19.7
2017-08-16 04:00:00 21.1 21 21.3 0 6864 19.46 19.28 19.63 100 19.4 19.2
2017-08-16 05:00:00 21 20.9 21.2 0 6864 19.04 18.78 19.4 100 18.9 18.7
2017-08-16 06:00:00 20.8 20.6 20.9 0 6854 18.85 18.74 19.01 100 18.8 18.7
2017-08-16 07:00:00 20.7 20.7 20.9 0 6894 19.55 19.12 20.07 100 19.4 19.1
2017-08-16 08:00:00 20.5 20.5 20.8 0 6962 20.88 20.17 21.64 100 20.8 20.1
2017-08-16 09:00:00 20.5 20.5 20.8 0 7226 22.06 21.56 22.43 100 22 21.5
2017-08-16 10:00:00 20.6 20.5 20.8 0 7254 22.5 22.38 22.64 100 22.4 22.3
2017-08-16 11:00:00 20.7 20.5 20.9 0 7246 23.02 22.61 23.32 100 23 22.6
2017-08-16 12:00:00 20.8 20.6 20.9 0 7246 24.68 23.09 25.72 100 24.6 23
2017-08-16 13:00:00 21 20.8 21.1 0 7254 26.47 25.7 27.29 100 26.4 25.7
2017-08-16 14:00:00 21.2 21.1 21.5 0 7254 28.4 27.26 28.91 100 28.3 27.2
2017-08-16 15:00:00 21.7 21.5 22 0 7254 29.11 28.26 29.82 100 29 28.2
2017-08-16 16:00:00 22.1 21.9 22.4 0 7206 29.66 28.86 30.28 100 29.6 28.8
2017-08-16 17:00:00 22.6 22.3 22.9 0 7186 28.58 28.03 29.29 100 28.5 28
2017-08-16 18:00:00 22.8 22.6 23.1 0 7138 27.66 27.42 27.93 100 27.6 27.4
2017-08-16 19:00:00 23 22.9 23.2 0 7040 26.52 25.31 27.31 100 26.4 25.3